sensor_id;sensor_type;location;lat;lon;timestamp;P1;durP1;ratioP1;P2;durP2;ratioP2
11568;SDS011;5840;46.894;15.542;2023-04-07T00:01:32;5.27;;;4.87;;
11568;SDS011;5840;46.894;15.542;2023-04-07T00:03:59;5.23;;;4.80;;
11568;SDS011;5840;46.894;15.542;2023-04-07T00:06:26;5.47;;;4.70;;
11568;SDS011;5840;46.894;15.542;2023-04-07T00:08:53;5.07;;;4.67;;
11568;SDS011;5840;46.894;15.542;2023-04-07T00:11:21;4.97;;;4.57;;
11568;SDS011;5840;46.894;15.542;2023-04-07T00:13:48;6.07;;;5.47;;
11568;SDS011;5840;46.894;15.542;2023-04-07T00:16:15;5.10;;;4.60;;
11568;SDS011;5840;46.894;15.542;2023-04-07T00:18:42;4.70;;;4.30;;
11568;SDS011;5840;46.894;15.542;2023-04-07T00:21:09;5.10;;;4.70;;
11568;SDS011;5840;46.894;15.542;2023-04-07T00:23:36;4.87;;;4.43;;
11568;SDS011;5840;46.894;15.542;2023-04-07T00:26:03;5.03;;;4.63;;
11568;SDS011;5840;46.894;15.542;2023-04-07T00:28:31;4.63;;;4.33;;
11568;SDS011;5840;46.894;15.542;2023-04-07T00:30:58;5.47;;;5.07;;
11568;SDS011;5840;46.894;15.542;2023-04-07T00:33:25;4.70;;;4.30;;
11568;SDS011;5840;46.894;15.542;2023-04-07T00:35:52;4.90;;;4.40;;
11568;SDS011;5840;46.894;15.542;2023-04-07T00:38:21;4.63;;;4.23;;
11568;SDS011;5840;46.894;15.542;2023-04-07T00:40:48;5.10;;;4.60;;
11568;SDS011;5840;46.894;15.542;2023-04-07T00:43:15;4.60;;;4.30;;
11568;SDS011;5840;46.894;15.542;2023-04-07T00:45:45;5.20;;;4.80;;
11568;SDS011;5840;46.894;15.542;2023-04-07T00:48:12;4.60;;;4.30;;
11568;SDS011;5840;46.894;15.542;2023-04-07T00:50:38;4.97;;;4.57;;
11568;SDS011;5840;46.894;15.542;2023-04-07T00:53:05;5.27;;;4.80;;
11568;SDS011;5840;46.894;15.542;2023-04-07T00:55:33;5.30;;;4.90;;
11568;SDS011;5840;46.894;15.542;2023-04-07T00:58:00;4.43;;;4.13;;
11568;SDS011;5840;46.894;15.542;2023-04-07T01:00:29;4.83;;;4.43;;
11568;SDS011;5840;46.894;15.542;2023-04-07T01:03:00;5.20;;;4.70;;
11568;SDS011;5840;46.894;15.542;2023-04-07T01:05:35;5.20;;;4.80;;
11568;SDS011;5840;46.894;15.542;2023-04-07T01:08:07;6.43;;;5.03;;
11568;SDS011;5840;46.894;15.542;2023-04-07T01:10:40;11.33;;;10.43;;
11568;SDS011;5840;46.894;15.542;2023-04-07T01:13:17;6.80;;;6.20;;
11568;SDS011;5840;46.894;15.542;2023-04-07T01:15:49;5.93;;;5.43;;
11568;SDS011;5840;46.894;15.542;2023-04-07T01:18:23;5.30;;;4.90;;
11568;SDS011;5840;46.894;15.542;2023-04-07T01:20:53;5.70;;;5.30;;
11568;SDS011;5840;46.894;15.542;2023-04-07T01:23:28;6.57;;;5.97;;
11568;SDS011;5840;46.894;15.542;2023-04-07T01:26:12;7.30;;;6.73;;
11568;SDS011;5840;46.894;15.542;2023-04-07T01:28:56;7.20;;;6.60;;
11568;SDS011;5840;46.894;15.542;2023-04-07T01:31:39;5.87;;;5.37;;
11568;SDS011;5840;46.894;15.542;2023-04-07T01:34:07;6.33;;;5.83;;
11568;SDS011;5840;46.894;15.542;2023-04-07T01:36:36;6.47;;;5.90;;
11568;SDS011;5840;46.894;15.542;2023-04-07T01:39:03;6.57;;;5.27;;
11568;SDS011;5840;46.894;15.542;2023-04-07T01:41:32;6.57;;;5.20;;
11568;SDS011;5840;46.894;15.542;2023-04-07T01:43:59;5.73;;;5.27;;
11568;SDS011;5840;46.894;15.542;2023-04-07T01:46:27;6.63;;;6.07;;
11568;SDS011;5840;46.894;15.542;2023-04-07T01:48:56;6.03;;;5.43;;
11568;SDS011;5840;46.894;15.542;2023-04-07T01:51:24;5.67;;;5.27;;
11568;SDS011;5840;46.894;15.542;2023-04-07T01:53:51;5.30;;;4.90;;
11568;SDS011;5840;46.894;15.542;2023-04-07T01:56:19;5.97;;;5.37;;
11568;SDS011;5840;46.894;15.542;2023-04-07T01:58:46;6.87;;;6.27;;
11568;SDS011;5840;46.894;15.542;2023-04-07T02:01:13;5.80;;;5.33;;
11568;SDS011;5840;46.894;15.542;2023-04-07T02:03:42;5.87;;;5.47;;
11568;SDS011;5840;46.894;15.542;2023-04-07T02:06:14;6.07;;;5.57;;
11568;SDS011;5840;46.894;15.542;2023-04-07T02:08:45;5.77;;;5.27;;
11568;SDS011;5840;46.894;15.542;2023-04-07T02:11:15;5.73;;;5.30;;
11568;SDS011;5840;46.894;15.542;2023-04-07T02:13:45;5.77;;;5.27;;
11568;SDS011;5840;46.894;15.542;2023-04-07T02:16:13;6.33;;;5.73;;
11568;SDS011;5840;46.894;15.542;2023-04-07T02:18:42;5.60;;;5.20;;
11568;SDS011;5840;46.894;15.542;2023-04-07T02:21:11;5.37;;;4.97;;
11568;SDS011;5840;46.894;15.542;2023-04-07T02:23:41;6.00;;;5.50;;
11568;SDS011;5840;46.894;15.542;2023-04-07T02:26:08;5.73;;;5.33;;
11568;SDS011;5840;46.894;15.542;2023-04-07T02:28:35;6.10;;;5.50;;
11568;SDS011;5840;46.894;15.542;2023-04-07T02:31:02;11.77;;;10.87;;
11568;SDS011;5840;46.894;15.542;2023-04-07T02:33:29;6.20;;;5.70;;
11568;SDS011;5840;46.894;15.542;2023-04-07T02:35:56;5.57;;;5.17;;
11568;SDS011;5840;46.894;15.542;2023-04-07T02:38:24;5.53;;;5.13;;
11568;SDS011;5840;46.894;15.542;2023-04-07T02:40:51;5.67;;;5.17;;
11568;SDS011;5840;46.894;15.542;2023-04-07T02:43:18;6.13;;;5.23;;
11568;SDS011;5840;46.894;15.542;2023-04-07T02:45:46;6.43;;;5.73;;
11568;SDS011;5840;46.894;15.542;2023-04-07T02:48:13;5.80;;;5.40;;
11568;SDS011;5840;46.894;15.542;2023-04-07T02:50:40;6.43;;;5.30;;
11568;SDS011;5840;46.894;15.542;2023-04-07T02:53:07;6.13;;;5.63;;
11568;SDS011;5840;46.894;15.542;2023-04-07T02:55:35;5.93;;;5.43;;
11568;SDS011;5840;46.894;15.542;2023-04-07T02:58:02;6.53;;;6.03;;
11568;SDS011;5840;46.894;15.542;2023-04-07T03:00:29;6.20;;;5.70;;
11568;SDS011;5840;46.894;15.542;2023-04-07T03:02:56;5.70;;;5.20;;
11568;SDS011;5840;46.894;15.542;2023-04-07T03:05:23;6.00;;;5.40;;
11568;SDS011;5840;46.894;15.542;2023-04-07T03:07:50;5.70;;;5.30;;
11568;SDS011;5840;46.894;15.542;2023-04-07T03:10:17;6.03;;;5.53;;
11568;SDS011;5840;46.894;15.542;2023-04-07T03:12:45;6.60;;;6.00;;
11568;SDS011;5840;46.894;15.542;2023-04-07T03:15:12;7.03;;;6.33;;
11568;SDS011;5840;46.894;15.542;2023-04-07T03:17:39;7.23;;;6.50;;
11568;SDS011;5840;46.894;15.542;2023-04-07T03:20:06;6.73;;;6.23;;
11568;SDS011;5840;46.894;15.542;2023-04-07T03:22:34;7.13;;;6.53;;
11568;SDS011;5840;46.894;15.542;2023-04-07T03:25:01;6.00;;;5.60;;
11568;SDS011;5840;46.894;15.542;2023-04-07T03:27:28;6.20;;;5.70;;
11568;SDS011;5840;46.894;15.542;2023-04-07T03:29:56;6.27;;;5.73;;
11568;SDS011;5840;46.894;15.542;2023-04-07T03:32:23;6.53;;;6.00;;
11568;SDS011;5840;46.894;15.542;2023-04-07T03:34:50;5.70;;;5.23;;
11568;SDS011;5840;46.894;15.542;2023-04-07T03:37:17;6.27;;;5.77;;
11568;SDS011;5840;46.894;15.542;2023-04-07T03:39:43;6.30;;;5.80;;
11568;SDS011;5840;46.894;15.542;2023-04-07T03:42:10;7.63;;;6.97;;
11568;SDS011;5840;46.894;15.542;2023-04-07T03:44:38;7.10;;;6.33;;
11568;SDS011;5840;46.894;15.542;2023-04-07T03:47:06;6.27;;;5.77;;
11568;SDS011;5840;46.894;15.542;2023-04-07T03:49:33;5.97;;;5.57;;
11568;SDS011;5840;46.894;15.542;2023-04-07T03:52:02;6.43;;;5.83;;
11568;SDS011;5840;46.894;15.542;2023-04-07T03:54:29;6.23;;;5.73;;
11568;SDS011;5840;46.894;15.542;2023-04-07T03:56:56;6.13;;;5.63;;
11568;SDS011;5840;46.894;15.542;2023-04-07T03:59:23;6.30;;;5.77;;
11568;SDS011;5840;46.894;15.542;2023-04-07T04:01:50;6.17;;;5.67;;
11568;SDS011;5840;46.894;15.542;2023-04-07T04:04:18;6.90;;;6.20;;
11568;SDS011;5840;46.894;15.542;2023-04-07T04:06:45;6.10;;;5.60;;
11568;SDS011;5840;46.894;15.542;2023-04-07T04:09:12;7.23;;;6.57;;
11568;SDS011;5840;46.894;15.542;2023-04-07T04:11:39;6.67;;;6.13;;
11568;SDS011;5840;46.894;15.542;2023-04-07T04:14:06;6.70;;;6.10;;
11568;SDS011;5840;46.894;15.542;2023-04-07T04:16:33;7.23;;;6.53;;
11568;SDS011;5840;46.894;15.542;2023-04-07T04:19:00;6.00;;;5.60;;
11568;SDS011;5840;46.894;15.542;2023-04-07T04:21:28;6.10;;;5.70;;
11568;SDS011;5840;46.894;15.542;2023-04-07T04:23:55;6.43;;;5.93;;
11568;SDS011;5840;46.894;15.542;2023-04-07T04:26:22;7.17;;;6.57;;
11568;SDS011;5840;46.894;15.542;2023-04-07T04:28:50;6.40;;;6.00;;
11568;SDS011;5840;46.894;15.542;2023-04-07T04:31:17;6.87;;;6.27;;
11568;SDS011;5840;46.894;15.542;2023-04-07T04:33:44;6.20;;;5.70;;
11568;SDS011;5840;46.894;15.542;2023-04-07T04:36:11;7.10;;;6.50;;
11568;SDS011;5840;46.894;15.542;2023-04-07T04:38:40;6.33;;;5.93;;
11568;SDS011;5840;46.894;15.542;2023-04-07T04:41:07;6.73;;;6.20;;
11568;SDS011;5840;46.894;15.542;2023-04-07T04:43:33;6.60;;;6.00;;
11568;SDS011;5840;46.894;15.542;2023-04-07T04:46:00;5.90;;;5.50;;
11568;SDS011;5840;46.894;15.542;2023-04-07T04:48:27;7.27;;;6.67;;
11568;SDS011;5840;46.894;15.542;2023-04-07T04:50:54;6.33;;;5.83;;
11568;SDS011;5840;46.894;15.542;2023-04-07T04:53:21;6.40;;;5.80;;
11568;SDS011;5840;46.894;15.542;2023-04-07T04:55:49;6.53;;;5.93;;
11568;SDS011;5840;46.894;15.542;2023-04-07T04:58:17;6.80;;;6.30;;
11568;SDS011;5840;46.894;15.542;2023-04-07T05:00:44;7.03;;;6.43;;
11568;SDS011;5840;46.894;15.542;2023-04-07T05:03:11;7.10;;;6.57;;
11568;SDS011;5840;46.894;15.542;2023-04-07T05:05:38;7.23;;;6.63;;
11568;SDS011;5840;46.894;15.542;2023-04-07T05:08:05;6.70;;;6.20;;
11568;SDS011;5840;46.894;15.542;2023-04-07T05:10:36;7.67;;;6.97;;
11568;SDS011;5840;46.894;15.542;2023-04-07T05:13:05;7.90;;;7.20;;
11568;SDS011;5840;46.894;15.542;2023-04-07T05:15:32;8.10;;;7.40;;
11568;SDS011;5840;46.894;15.542;2023-04-07T05:17:59;9.13;;;8.23;;
11568;SDS011;5840;46.894;15.542;2023-04-07T05:20:26;9.37;;;8.67;;
11568;SDS011;5840;46.894;15.542;2023-04-07T05:22:53;7.33;;;6.70;;
11568;SDS011;5840;46.894;15.542;2023-04-07T05:25:19;7.87;;;7.27;;
11568;SDS011;5840;46.894;15.542;2023-04-07T05:27:46;8.17;;;7.37;;
11568;SDS011;5840;46.894;15.542;2023-04-07T05:30:15;7.90;;;7.30;;
11568;SDS011;5840;46.894;15.542;2023-04-07T05:32:42;7.90;;;7.20;;
11568;SDS011;5840;46.894;15.542;2023-04-07T05:35:09;8.37;;;7.63;;
11568;SDS011;5840;46.894;15.542;2023-04-07T05:37:36;7.27;;;6.67;;
11568;SDS011;5840;46.894;15.542;2023-04-07T05:40:03;7.93;;;7.33;;
11568;SDS011;5840;46.894;15.542;2023-04-07T05:42:31;8.00;;;7.30;;
11568;SDS011;5840;46.894;15.542;2023-04-07T05:44:58;7.87;;;7.10;;
11568;SDS011;5840;46.894;15.542;2023-04-07T05:47:26;8.70;;;8.00;;
11568;SDS011;5840;46.894;15.542;2023-04-07T05:49:53;8.77;;;7.97;;
11568;SDS011;5840;46.894;15.542;2023-04-07T05:52:20;8.40;;;7.60;;
11568;SDS011;5840;46.894;15.542;2023-04-07T05:54:47;8.90;;;8.20;;
11568;SDS011;5840;46.894;15.542;2023-04-07T05:57:14;8.67;;;7.97;;
11568;SDS011;5840;46.894;15.542;2023-04-07T05:59:41;8.67;;;8.00;;
11568;SDS011;5840;46.894;15.542;2023-04-07T06:02:08;9.83;;;8.93;;
11568;SDS011;5840;46.894;15.542;2023-04-07T06:04:36;9.53;;;8.63;;
11568;SDS011;5840;46.894;15.542;2023-04-07T06:07:03;9.43;;;8.50;;
11568;SDS011;5840;46.894;15.542;2023-04-07T06:09:30;11.13;;;10.03;;
11568;SDS011;5840;46.894;15.542;2023-04-07T06:11:57;9.07;;;8.27;;
11568;SDS011;5840;46.894;15.542;2023-04-07T06:14:25;10.17;;;9.27;;
11568;SDS011;5840;46.894;15.542;2023-04-07T06:16:52;9.30;;;8.57;;
11568;SDS011;5840;46.894;15.542;2023-04-07T06:19:19;9.23;;;8.43;;
11568;SDS011;5840;46.894;15.542;2023-04-07T06:21:47;8.33;;;7.63;;
11568;SDS011;5840;46.894;15.542;2023-04-07T06:24:14;8.23;;;7.43;;
11568;SDS011;5840;46.894;15.542;2023-04-07T06:26:41;7.43;;;6.83;;
11568;SDS011;5840;46.894;15.542;2023-04-07T06:29:10;9.70;;;8.90;;
11568;SDS011;5840;46.894;15.542;2023-04-07T06:31:37;8.73;;;7.80;;
11568;SDS011;5840;46.894;15.542;2023-04-07T06:34:04;10.40;;;9.30;;
11568;SDS011;5840;46.894;15.542;2023-04-07T06:36:31;11.17;;;10.17;;
11568;SDS011;5840;46.894;15.542;2023-04-07T06:39:00;8.30;;;7.60;;
11568;SDS011;5840;46.894;15.542;2023-04-07T06:41:27;8.93;;;8.10;;
11568;SDS011;5840;46.894;15.542;2023-04-07T06:43:54;8.87;;;7.17;;
11568;SDS011;5840;46.894;15.542;2023-04-07T06:46:21;9.10;;;8.20;;
11568;SDS011;5840;46.894;15.542;2023-04-07T06:48:50;9.10;;;8.40;;
11568;SDS011;5840;46.894;15.542;2023-04-07T06:51:17;10.20;;;9.20;;
11568;SDS011;5840;46.894;15.542;2023-04-07T06:53:44;9.43;;;8.47;;
11568;SDS011;5840;46.894;15.542;2023-04-07T06:56:14;11.27;;;10.27;;
11568;SDS011;5840;46.894;15.542;2023-04-07T06:58:41;12.50;;;11.33;;
11568;SDS011;5840;46.894;15.542;2023-04-07T07:01:08;12.00;;;10.97;;
11568;SDS011;5840;46.894;15.542;2023-04-07T07:03:35;11.20;;;10.30;;
11568;SDS011;5840;46.894;15.542;2023-04-07T07:06:02;10.77;;;9.70;;
11568;SDS011;5840;46.894;15.542;2023-04-07T07:08:29;8.93;;;8.13;;
11568;SDS011;5840;46.894;15.542;2023-04-07T07:10:56;13.13;;;11.53;;
11568;SDS011;5840;46.894;15.542;2023-04-07T07:13:25;11.47;;;10.03;;
11568;SDS011;5840;46.894;15.542;2023-04-07T07:15:52;10.47;;;9.53;;
11568;SDS011;5840;46.894;15.542;2023-04-07T07:18:19;12.33;;;11.23;;
11568;SDS011;5840;46.894;15.542;2023-04-07T07:20:46;11.20;;;10.10;;
11568;SDS011;5840;46.894;15.542;2023-04-07T07:23:13;11.47;;;10.13;;
11568;SDS011;5840;46.894;15.542;2023-04-07T07:25:40;10.93;;;10.00;;
11568;SDS011;5840;46.894;15.542;2023-04-07T07:28:07;8.27;;;7.57;;
11568;SDS011;5840;46.894;15.542;2023-04-07T07:30:35;9.47;;;8.67;;
11568;SDS011;5840;46.894;15.542;2023-04-07T07:33:05;8.20;;;7.50;;
11568;SDS011;5840;46.894;15.542;2023-04-07T07:35:32;8.60;;;7.87;;
11568;SDS011;5840;46.894;15.542;2023-04-07T07:37:59;9.03;;;8.30;;
11568;SDS011;5840;46.894;15.542;2023-04-07T07:40:26;8.57;;;7.87;;
11568;SDS011;5840;46.894;15.542;2023-04-07T07:42:53;8.47;;;7.70;;
11568;SDS011;5840;46.894;15.542;2023-04-07T07:45:20;9.37;;;8.57;;
11568;SDS011;5840;46.894;15.542;2023-04-07T07:47:49;9.97;;;9.03;;
11568;SDS011;5840;46.894;15.542;2023-04-07T07:50:16;10.07;;;9.17;;
11568;SDS011;5840;46.894;15.542;2023-04-07T07:52:42;9.57;;;8.67;;
11568;SDS011;5840;46.894;15.542;2023-04-07T07:55:10;10.30;;;9.00;;
11568;SDS011;5840;46.894;15.542;2023-04-07T07:57:36;10.00;;;9.20;;
11568;SDS011;5840;46.894;15.542;2023-04-07T08:00:04;10.80;;;9.80;;
11568;SDS011;5840;46.894;15.542;2023-04-07T08:02:31;9.87;;;9.10;;
11568;SDS011;5840;46.894;15.542;2023-04-07T08:05:01;10.10;;;9.20;;
11568;SDS011;5840;46.894;15.542;2023-04-07T08:07:29;10.27;;;9.30;;
11568;SDS011;5840;46.894;15.542;2023-04-07T08:09:56;9.60;;;8.77;;
11568;SDS011;5840;46.894;15.542;2023-04-07T08:12:22;10.00;;;9.00;;
11568;SDS011;5840;46.894;15.542;2023-04-07T08:14:49;10.53;;;9.57;;
11568;SDS011;5840;46.894;15.542;2023-04-07T08:17:16;10.37;;;9.30;;
11568;SDS011;5840;46.894;15.542;2023-04-07T08:19:43;10.13;;;9.23;;
11568;SDS011;5840;46.894;15.542;2023-04-07T08:22:12;9.97;;;9.17;;
11568;SDS011;5840;46.894;15.542;2023-04-07T08:24:40;9.20;;;8.47;;
11568;SDS011;5840;46.894;15.542;2023-04-07T08:27:07;9.90;;;8.93;;
11568;SDS011;5840;46.894;15.542;2023-04-07T08:29:34;9.67;;;8.87;;
11568;SDS011;5840;46.894;15.542;2023-04-07T08:32:01;9.87;;;8.83;;
11568;SDS011;5840;46.894;15.542;2023-04-07T08:34:27;10.37;;;9.37;;
11568;SDS011;5840;46.894;15.542;2023-04-07T08:36:54;9.47;;;8.67;;
11568;SDS011;5840;46.894;15.542;2023-04-07T08:39:23;10.07;;;9.10;;
11568;SDS011;5840;46.894;15.542;2023-04-07T08:41:50;9.70;;;8.80;;
11568;SDS011;5840;46.894;15.542;2023-04-07T08:44:20;9.47;;;8.67;;
11568;SDS011;5840;46.894;15.542;2023-04-07T08:46:48;9.40;;;8.60;;
11568;SDS011;5840;46.894;15.542;2023-04-07T08:49:16;8.80;;;8.10;;
11568;SDS011;5840;46.894;15.542;2023-04-07T08:51:44;8.90;;;8.10;;
11568;SDS011;5840;46.894;15.542;2023-04-07T08:54:13;8.70;;;7.90;;
11568;SDS011;5840;46.894;15.542;2023-04-07T08:56:44;8.63;;;7.83;;
11568;SDS011;5840;46.894;15.542;2023-04-07T08:59:11;8.30;;;7.50;;
11568;SDS011;5840;46.894;15.542;2023-04-07T09:01:40;7.83;;;7.20;;
11568;SDS011;5840;46.894;15.542;2023-04-07T09:04:07;7.50;;;6.90;;
11568;SDS011;5840;46.894;15.542;2023-04-07T09:06:35;8.63;;;7.30;;
11568;SDS011;5840;46.894;15.542;2023-04-07T09:09:03;8.13;;;7.00;;
11568;SDS011;5840;46.894;15.542;2023-04-07T09:11:33;7.43;;;6.73;;
11568;SDS011;5840;46.894;15.542;2023-04-07T09:14:02;6.83;;;6.33;;
11568;SDS011;5840;46.894;15.542;2023-04-07T09:16:29;7.07;;;6.53;;
11568;SDS011;5840;46.894;15.542;2023-04-07T09:18:56;6.43;;;5.83;;
11568;SDS011;5840;46.894;15.542;2023-04-07T09:21:23;6.70;;;6.10;;
11568;SDS011;5840;46.894;15.542;2023-04-07T09:23:51;6.57;;;6.07;;
11568;SDS011;5840;46.894;15.542;2023-04-07T09:26:19;5.83;;;5.30;;
11568;SDS011;5840;46.894;15.542;2023-04-07T09:28:50;7.20;;;6.57;;
11568;SDS011;5840;46.894;15.542;2023-04-07T09:31:20;6.63;;;6.10;;
11568;SDS011;5840;46.894;15.542;2023-04-07T09:33:50;7.53;;;6.93;;
11568;SDS011;5840;46.894;15.542;2023-04-07T09:36:18;7.90;;;7.20;;
11568;SDS011;5840;46.894;15.542;2023-04-07T09:38:45;7.13;;;6.53;;
11568;SDS011;5840;46.894;15.542;2023-04-07T09:41:12;7.10;;;6.53;;
11568;SDS011;5840;46.894;15.542;2023-04-07T09:43:40;8.30;;;7.60;;
11568;SDS011;5840;46.894;15.542;2023-04-07T09:46:10;7.27;;;6.70;;
11568;SDS011;5840;46.894;15.542;2023-04-07T09:48:40;6.37;;;5.97;;
11568;SDS011;5840;46.894;15.542;2023-04-07T09:51:09;6.70;;;6.10;;
11568;SDS011;5840;46.894;15.542;2023-04-07T09:53:41;6.30;;;5.80;;
11568;SDS011;5840;46.894;15.542;2023-04-07T09:56:12;6.07;;;5.60;;
11568;SDS011;5840;46.894;15.542;2023-04-07T09:58:42;6.50;;;5.87;;
11568;SDS011;5840;46.894;15.542;2023-04-07T10:01:10;6.73;;;6.23;;
11568;SDS011;5840;46.894;15.542;2023-04-07T10:03:38;6.40;;;5.90;;
11568;SDS011;5840;46.894;15.542;2023-04-07T10:06:06;6.27;;;5.77;;
11568;SDS011;5840;46.894;15.542;2023-04-07T10:08:34;5.63;;;5.20;;
11568;SDS011;5840;46.894;15.542;2023-04-07T10:11:03;6.63;;;6.20;;
11568;SDS011;5840;46.894;15.542;2023-04-07T10:13:31;6.47;;;5.97;;
11568;SDS011;5840;46.894;15.542;2023-04-07T10:16:01;6.40;;;5.90;;
11568;SDS011;5840;46.894;15.542;2023-04-07T10:18:29;6.33;;;5.83;;
11568;SDS011;5840;46.894;15.542;2023-04-07T10:21:01;6.83;;;6.23;;
11568;SDS011;5840;46.894;15.542;2023-04-07T10:23:31;6.60;;;6.10;;
11568;SDS011;5840;46.894;15.542;2023-04-07T10:26:08;6.30;;;5.80;;
11568;SDS011;5840;46.894;15.542;2023-04-07T10:28:37;6.53;;;5.93;;
11568;SDS011;5840;46.894;15.542;2023-04-07T10:31:08;6.17;;;5.67;;
11568;SDS011;5840;46.894;15.542;2023-04-07T10:33:45;7.30;;;6.60;;
11568;SDS011;5840;46.894;15.542;2023-04-07T10:36:15;6.43;;;5.83;;
11568;SDS011;5840;46.894;15.542;2023-04-07T10:38:57;6.93;;;6.33;;
11568;SDS011;5840;46.894;15.542;2023-04-07T10:41:44;6.43;;;5.83;;
11568;SDS011;5840;46.894;15.542;2023-04-07T10:47:13;6.40;;;5.90;;
11568;SDS011;5840;46.894;15.542;2023-04-07T10:50:13;6.80;;;6.20;;
11568;SDS011;5840;46.894;15.542;2023-04-07T10:52:45;6.73;;;6.10;;
11568;SDS011;5840;46.894;15.542;2023-04-07T10:55:27;6.10;;;5.60;;
11568;SDS011;5840;46.894;15.542;2023-04-07T11:00:42;6.00;;;5.50;;
11568;SDS011;5840;46.894;15.542;2023-04-07T11:03:51;6.30;;;5.80;;
11568;SDS011;5840;46.894;15.542;2023-04-07T11:06:25;6.50;;;6.10;;
11568;SDS011;5840;46.894;15.542;2023-04-07T11:08:54;6.17;;;5.67;;
11568;SDS011;5840;46.894;15.542;2023-04-07T11:14:03;6.37;;;5.87;;
11568;SDS011;5840;46.894;15.542;2023-04-07T11:16:37;5.60;;;5.20;;
11568;SDS011;5840;46.894;15.542;2023-04-07T11:19:06;6.13;;;5.67;;
11568;SDS011;5840;46.894;15.542;2023-04-07T11:21:33;6.20;;;5.63;;
11568;SDS011;5840;46.894;15.542;2023-04-07T11:24:02;6.00;;;5.60;;
11568;SDS011;5840;46.894;15.542;2023-04-07T11:26:29;6.53;;;5.80;;
11568;SDS011;5840;46.894;15.542;2023-04-07T11:29:02;5.93;;;5.47;;
11568;SDS011;5840;46.894;15.542;2023-04-07T11:31:29;6.40;;;5.90;;
11568;SDS011;5840;46.894;15.542;2023-04-07T11:33:57;5.93;;;5.53;;
11568;SDS011;5840;46.894;15.542;2023-04-07T11:36:26;5.10;;;4.80;;
11568;SDS011;5840;46.894;15.542;2023-04-07T11:38:54;6.27;;;5.73;;
11568;SDS011;5840;46.894;15.542;2023-04-07T11:41:23;6.03;;;5.50;;
11568;SDS011;5840;46.894;15.542;2023-04-07T11:44:04;5.80;;;5.30;;
11568;SDS011;5840;46.894;15.542;2023-04-07T11:46:32;6.33;;;5.67;;
11568;SDS011;5840;46.894;15.542;2023-04-07T11:49:10;6.70;;;6.10;;
11568;SDS011;5840;46.894;15.542;2023-04-07T11:51:38;7.00;;;6.40;;
11568;SDS011;5840;46.894;15.542;2023-04-07T11:54:05;6.27;;;5.67;;
11568;SDS011;5840;46.894;15.542;2023-04-07T11:56:44;7.10;;;6.50;;
11568;SDS011;5840;46.894;15.542;2023-04-07T11:59:18;8.20;;;7.60;;
11568;SDS011;5840;46.894;15.542;2023-04-07T12:01:47;7.13;;;6.43;;
11568;SDS011;5840;46.894;15.542;2023-04-07T12:04:15;6.97;;;6.27;;
11568;SDS011;5840;46.894;15.542;2023-04-07T12:06:42;6.70;;;6.20;;
11568;SDS011;5840;46.894;15.542;2023-04-07T12:09:24;6.80;;;6.30;;
11568;SDS011;5840;46.894;15.542;2023-04-07T12:11:54;7.07;;;6.47;;
11568;SDS011;5840;46.894;15.542;2023-04-07T12:14:22;7.40;;;6.73;;
11568;SDS011;5840;46.894;15.542;2023-04-07T12:16:49;6.30;;;5.70;;
11568;SDS011;5840;46.894;15.542;2023-04-07T12:19:20;6.70;;;6.20;;
11568;SDS011;5840;46.894;15.542;2023-04-07T12:21:47;6.90;;;6.30;;
11568;SDS011;5840;46.894;15.542;2023-04-07T12:24:14;6.70;;;6.20;;
11568;SDS011;5840;46.894;15.542;2023-04-07T12:26:41;6.90;;;6.40;;
11568;SDS011;5840;46.894;15.542;2023-04-07T12:29:10;6.77;;;6.27;;
11568;SDS011;5840;46.894;15.542;2023-04-07T12:31:37;6.40;;;5.90;;
11568;SDS011;5840;46.894;15.542;2023-04-07T12:34:04;6.60;;;6.00;;
11568;SDS011;5840;46.894;15.542;2023-04-07T12:36:31;6.60;;;5.70;;
11568;SDS011;5840;46.894;15.542;2023-04-07T12:38:59;6.90;;;6.20;;
11568;SDS011;5840;46.894;15.542;2023-04-07T12:41:26;6.93;;;6.07;;
11568;SDS011;5840;46.894;15.542;2023-04-07T12:43:53;6.47;;;5.87;;
11568;SDS011;5840;46.894;15.542;2023-04-07T12:46:21;6.50;;;5.90;;
11568;SDS011;5840;46.894;15.542;2023-04-07T12:48:48;6.63;;;6.13;;
11568;SDS011;5840;46.894;15.542;2023-04-07T12:51:15;8.67;;;6.80;;
11568;SDS011;5840;46.894;15.542;2023-04-07T12:53:42;6.03;;;5.63;;
11568;SDS011;5840;46.894;15.542;2023-04-07T12:56:09;6.70;;;6.13;;
11568;SDS011;5840;46.894;15.542;2023-04-07T12:58:37;6.10;;;5.60;;
11568;SDS011;5840;46.894;15.542;2023-04-07T13:01:04;6.57;;;5.93;;
11568;SDS011;5840;46.894;15.542;2023-04-07T13:03:33;7.07;;;6.43;;
11568;SDS011;5840;46.894;15.542;2023-04-07T13:06:00;6.70;;;6.10;;
11568;SDS011;5840;46.894;15.542;2023-04-07T13:08:28;6.90;;;6.37;;
11568;SDS011;5840;46.894;15.542;2023-04-07T13:10:55;6.93;;;6.20;;
11568;SDS011;5840;46.894;15.542;2023-04-07T13:13:23;6.93;;;6.33;;
11568;SDS011;5840;46.894;15.542;2023-04-07T13:15:50;6.67;;;6.17;;
11568;SDS011;5840;46.894;15.542;2023-04-07T13:18:17;7.13;;;6.53;;
11568;SDS011;5840;46.894;15.542;2023-04-07T13:20:45;7.07;;;6.47;;
11568;SDS011;5840;46.894;15.542;2023-04-07T13:23:12;7.00;;;6.40;;
11568;SDS011;5840;46.894;15.542;2023-04-07T13:25:40;7.10;;;5.97;;
11568;SDS011;5840;46.894;15.542;2023-04-07T13:28:07;6.73;;;6.13;;
11568;SDS011;5840;46.894;15.542;2023-04-07T13:30:34;6.67;;;6.07;;
11568;SDS011;5840;46.894;15.542;2023-04-07T13:33:01;6.53;;;6.03;;
11568;SDS011;5840;46.894;15.542;2023-04-07T13:35:28;5.93;;;5.50;;
11568;SDS011;5840;46.894;15.542;2023-04-07T13:38:00;7.80;;;7.00;;
11568;SDS011;5840;46.894;15.542;2023-04-07T13:40:28;6.73;;;6.23;;
11568;SDS011;5840;46.894;15.542;2023-04-07T13:42:55;6.17;;;5.67;;
11568;SDS011;5840;46.894;15.542;2023-04-07T13:45:23;7.03;;;6.37;;
11568;SDS011;5840;46.894;15.542;2023-04-07T13:47:49;7.07;;;6.47;;
11568;SDS011;5840;46.894;15.542;2023-04-07T13:50:16;7.20;;;6.60;;
11568;SDS011;5840;46.894;15.542;2023-04-07T13:52:43;6.90;;;6.30;;
11568;SDS011;5840;46.894;15.542;2023-04-07T13:55:12;6.83;;;6.17;;
11568;SDS011;5840;46.894;15.542;2023-04-07T13:57:40;7.13;;;6.53;;
11568;SDS011;5840;46.894;15.542;2023-04-07T14:00:07;7.37;;;6.67;;
11568;SDS011;5840;46.894;15.542;2023-04-07T14:02:35;6.60;;;6.00;;
11568;SDS011;5840;46.894;15.542;2023-04-07T14:05:02;7.23;;;6.63;;
11568;SDS011;5840;46.894;15.542;2023-04-07T14:07:29;6.80;;;6.20;;
11568;SDS011;5840;46.894;15.542;2023-04-07T14:09:56;6.90;;;6.23;;
11568;SDS011;5840;46.894;15.542;2023-04-07T14:12:25;7.50;;;6.80;;
11568;SDS011;5840;46.894;15.542;2023-04-07T14:14:52;6.97;;;6.40;;
11568;SDS011;5840;46.894;15.542;2023-04-07T14:17:19;6.80;;;6.30;;
11568;SDS011;5840;46.894;15.542;2023-04-07T14:19:46;7.20;;;6.13;;
11568;SDS011;5840;46.894;15.542;2023-04-07T14:22:13;6.90;;;6.30;;
11568;SDS011;5840;46.894;15.542;2023-04-07T14:24:40;7.90;;;7.30;;
11568;SDS011;5840;46.894;15.542;2023-04-07T14:27:07;7.23;;;6.63;;
11568;SDS011;5840;46.894;15.542;2023-04-07T14:29:36;7.00;;;6.50;;
11568;SDS011;5840;46.894;15.542;2023-04-07T14:32:03;6.90;;;6.30;;
11568;SDS011;5840;46.894;15.542;2023-04-07T14:34:30;7.43;;;6.63;;
11568;SDS011;5840;46.894;15.542;2023-04-07T14:36:57;7.20;;;6.60;;
11568;SDS011;5840;46.894;15.542;2023-04-07T14:39:23;7.40;;;6.70;;
11568;SDS011;5840;46.894;15.542;2023-04-07T14:41:51;7.33;;;6.73;;
11568;SDS011;5840;46.894;15.542;2023-04-07T14:44:18;7.83;;;7.13;;
11568;SDS011;5840;46.894;15.542;2023-04-07T14:46:46;7.97;;;7.27;;
11568;SDS011;5840;46.894;15.542;2023-04-07T14:49:13;7.97;;;7.33;;
11568;SDS011;5840;46.894;15.542;2023-04-07T14:51:40;8.43;;;7.63;;
11568;SDS011;5840;46.894;15.542;2023-04-07T14:54:07;8.60;;;7.90;;
11568;SDS011;5840;46.894;15.542;2023-04-07T14:56:34;9.00;;;8.20;;
11568;SDS011;5840;46.894;15.542;2023-04-07T14:59:01;9.33;;;8.50;;
11568;SDS011;5840;46.894;15.542;2023-04-07T15:01:28;8.50;;;7.70;;